Time;durP1;ratioP1;P1;durP2;ratioP2;P2;SDS_P1;SDS_P2;PMS_P1;PMS_P2;Temp;Humidity;BMP_temperature;BMP_pressure;BME280_temperature;BME280_humidity;BME280_pressure;Samples;Min_cycle;Max_cycle;Signal;HPM_P1;HPM_P2
2022/12/31 00:01:07;;;;;;;8.13;2.00;;;;;;;15.22;78.14;100301.50;4982277;28;20148;-42
2022/12/31 00:03:33;;;;;;;8.95;1.88;;;;;;;15.45;76.81;100301.16;4986356;28;20562;-47
2022/12/31 00:05:59;;;;;;;8.48;1.50;;;;;;;14.98;78.29;100296.59;4986086;28;20146;-42
2022/12/31 00:08:24;;;;;;;8.15;1.63;;;;;;;14.95;78.60;100302.75;4982094;28;20098;-41
2022/12/31 00:10:50;;;;;;;6.25;1.48;;;;;;;14.86;79.04;100305.50;4985310;28;20038;-44
2022/12/31 00:13:15;;;;;;;7.03;1.55;;;;;;;15.23;77.92;100312.88;4981805;28;20034;-42
2022/12/31 00:15:42;;;;;;;6.30;1.25;;;;;;;15.19;78.11;100313.78;4985420;28;20538;-42
2022/12/31 00:18:08;;;;;;;8.73;1.42;;;;;;;14.96;78.86;100308.84;4982240;28;20446;-45
2022/12/31 00:20:34;;;;;;;7.20;1.40;;;;;;;15.01;78.05;100315.78;4985230;28;20042;-43
2022/12/31 00:22:59;;;;;;;9.65;1.60;;;;;;;14.87;79.19;100317.75;4986679;28;20387;-41
2022/12/31 00:25:24;;;;;;;9.68;1.70;;;;;;;14.76;78.92;100318.78;4982807;28;20442;-44
2022/12/31 00:27:50;;;;;;;9.82;1.33;;;;;;;14.99;78.06;100325.47;4988314;28;20137;-42
2022/12/31 00:30:15;;;;;;;8.77;1.50;;;;;;;14.96;78.83;100317.59;4983373;28;20062;-42
2022/12/31 00:32:41;;;;;;;7.97;1.40;;;;;;;15.05;78.27;100308.75;4987174;28;20030;-45
2022/12/31 00:35:07;;;;;;;8.60;1.60;;;;;;;14.85;78.61;100316.00;4984839;28;20042;-48
2022/12/31 00:37:32;;;;;;;7.40;1.27;;;;;;;14.75;79.05;100315.28;4988484;28;20034;-42
2022/12/31 00:39:57;;;;;;;6.57;1.45;;;;;;;15.20;77.54;100305.91;4988767;28;20054;-42
2022/12/31 00:42:23;;;;;;;7.20;1.42;;;;;;;14.88;78.60;100310.75;4985109;28;20042;-41
2022/12/31 00:44:48;;;;;;;9.18;1.73;;;;;;;14.83;78.49;100309.91;4989369;28;20406;-45
2022/12/31 00:47:14;;;;;;;6.30;1.33;;;;;;;15.03;77.61;100290.38;4984353;28;20451;-43
2022/12/31 00:49:39;;;;;;;7.22;1.45;;;;;;;15.04;77.35;100293.88;4986041;28;20117;-42
2022/12/31 00:52:04;;;;;;;8.20;1.40;;;;;;;14.93;78.02;100298.41;4982281;28;20628;-41
2022/12/31 00:54:30;;;;;;;9.68;1.58;;;;;;;14.80;78.70;100300.34;4985543;28;20035;-41
2022/12/31 00:56:55;;;;;;;7.50;1.50;;;;;;;15.12;77.52;100307.78;4985525;28;20414;-41
2022/12/31 00:59:21;;;;;;;8.52;1.70;;;;;;;15.33;76.54;100293.44;4982087;28;20330;-44
2022/12/31 01:01:46;;;;;;;7.38;1.30;;;;;;;14.98;77.92;100297.47;4985779;28;20517;-46
2022/12/31 01:04:14;;;;;;;8.07;1.60;;;;;;;14.84;78.55;100301.16;4982136;28;20140;-47
2022/12/31 01:06:40;;;;;;;9.60;1.52;;;;;;;14.94;78.09;100303.63;4985712;28;20097;-42
2022/12/31 01:09:06;;;;;;;8.23;1.45;;;;;;;14.93;77.86;100296.66;4982034;28;20499;-46
2022/12/31 01:11:31;;;;;;;9.00;1.50;;;;;;;14.98;78.13;100284.34;4985544;28;20053;-41
2022/12/31 01:13:58;;;;;;;7.13;1.50;;;;;;;15.01;78.16;100284.28;4985989;28;20407;-41
2022/12/31 01:16:37;;;;;;;9.45;1.58;;;;;;;14.89;77.96;100276.56;4982130;28;20057;-43
2022/12/31 01:19:06;;;;;;;7.50;1.33;;;;;;;15.22;77.20;100279.63;4985575;28;20043;-41
2022/12/31 01:21:32;;;;;;;7.53;1.33;;;;;;;14.99;77.29;100290.47;4981040;28;20522;-44
2022/12/31 01:23:58;;;;;;;4.25;1.13;;;;;;;15.13;77.69;100300.75;4984956;28;20133;-43
2022/12/31 01:26:25;;;;;;;7.70;1.20;;;;;;;14.96;78.00;100293.13;4980908;28;20563;-42
2022/12/31 01:28:50;;;;;;;7.10;1.10;;;;;;;15.14;77.21;100294.59;4984634;28;20030;-42
2022/12/31 01:31:18;;;;;;;4.90;1.20;;;;;;;15.17;77.04;100297.22;4980712;28;20403;-44
2022/12/31 01:33:44;;;;;;;7.53;1.45;;;;;;;15.36;76.17;100285.53;4983647;28;20027;-40
2022/12/31 01:36:19;;;;;;;7.80;1.58;;;;;;;15.29;76.11;100283.91;4980569;28;20465;-43
2022/12/31 01:38:44;;;;;;;5.80;1.20;;;;;;;15.05;76.90;100287.75;4984005;28;20466;-43
2022/12/31 01:41:16;;;;;;;5.22;1.20;;;;;;;15.08;76.88;100292.94;4980149;28;20034;-43
2022/12/31 01:43:46;;;;;;;5.47;1.20;;;;;;;15.30;75.50;100294.38;4983714;28;20062;-42
2022/12/31 01:46:16;;;;;;;5.65;1.25;;;;;;;15.23;75.79;100284.84;4980053;28;20046;-42
2022/12/31 01:48:41;;;;;;;6.07;1.20;;;;;;;15.15;75.97;100291.09;4982478;28;20026;-43
2022/12/31 01:51:08;;;;;;;4.68;1.15;;;;;;;14.97;76.31;100285.22;4980262;28;20043;-43
2022/12/31 01:53:34;;;;;;;5.80;1.25;;;;;;;14.95;76.10;100287.00;4983772;28;20503;-43
2022/12/31 01:56:00;;;;;;;6.93;1.23;;;;;;;14.94;76.57;100282.63;4983902;28;20042;-42
2022/12/31 01:58:35;;;;;;;5.00;1.10;;;;;;;14.75;76.35;100261.94;4979822;28;20030;-43
2022/12/31 02:01:01;;;;;;;4.55;0.98;;;;;;;15.02;75.69;100256.28;4982922;28;20042;-41
2022/12/31 02:03:28;;;;;;;8.45;1.20;;;;;;;15.28;74.79;100263.78;4979975;28;20084;-40
2022/12/31 02:06:02;;;;;;;6.57;1.23;;;;;;;14.71;76.31;100303.06;4983503;28;20030;-42
2022/12/31 02:08:27;;;;;;;7.65;1.25;;;;;;;14.87;76.04;100309.88;4979644;28;20124;-45
2022/12/31 02:10:53;;;;;;;6.63;1.20;;;;;;;15.01;75.16;100301.78;4982908;28;20337;-41
2022/12/31 02:13:18;;;;;;;3.92;1.15;;;;;;;15.06;75.21;100315.75;4979518;28;20530;-43
2022/12/31 02:16:12;;;;;;;4.32;1.10;;;;;;;15.15;74.83;100309.47;4983289;28;20125;-41
2022/12/31 02:18:46;;;;;;;8.90;1.30;;;;;;;14.53;76.61;100322.53;4979498;28;20038;-44
2022/12/31 02:21:23;;;;;;;;;;;;;;;14.41;77.60;100321.78;4979887;28;20042;-40
2022/12/31 02:24:01;;;;;;;4.88;1.20;;;;;;;14.85;76.12;100318.63;4982951;28;20374;-40
2022/12/31 02:26:44;;;;;;;6.15;1.50;;;;;;;14.69;76.45;100317.97;4979855;28;20040;-41
2022/12/31 02:29:46;;;;;;;7.30;1.60;;;;;;;14.80;75.64;100318.72;4979545;28;20042;-43
2022/12/31 02:32:36;;;;;;;6.90;1.30;;;;;;;14.74;75.80;100318.78;4978310;28;20038;-40
2022/12/31 02:35:47;;;;;;;6.63;1.42;;;;;;;14.57;76.15;100312.88;4983828;28;20514;-43
2022/12/31 02:38:34;;;;;;;11.00;1.33;;;;;;;14.71;76.05;100307.44;4957728;28;20041;-42
2022/12/31 02:41:00;;;;;;;8.45;1.50;;;;;;;14.15;77.49;100317.66;4982734;28;20043;-45
2022/12/31 02:43:27;;;;;;;11.27;1.30;;;;;;;14.55;75.96;100318.13;4979715;28;20064;-44
2022/12/31 02:46:22;;;;;;;4.80;1.02;;;;;;;14.65;75.27;100320.63;4983810;28;20121;-42
2022/12/31 02:48:55;;;;;;;9.10;1.27;;;;;;;14.51;76.38;100324.31;4980423;28;20473;-44
2022/12/31 02:51:43;;;;;;;6.57;1.05;;;;;;;14.30;76.01;100328.88;4979741;28;20050;-41
2022/12/31 02:54:38;;;;;;;6.35;1.10;;;;;;;14.57;75.50;100329.50;4984268;28;20038;-44
2022/12/31 02:57:22;;;;;;;8.48;1.10;;;;;;;14.28;75.84;100344.59;4980616;28;20046;-43
2022/12/31 03:02:45;;;;;;;6.60;0.98;;;;;;;14.16;76.15;100340.34;4980811;28;20278;-39
2022/12/31 03:05:14;;;;;;;8.35;1.10;;;;;;;14.26;76.32;100348.16;4980483;28;20041;-41
2022/12/31 03:07:40;;;;;;;6.10;1.08;;;;;;;13.81;77.09;100339.81;4984525;28;20042;-43
2022/12/31 03:10:06;;;;;;;6.97;0.90;;;;;;;14.04;76.24;100345.72;5004714;23;20195;-41
2022/12/31 03:12:46;;;;;;;7.03;0.98;;;;;;;14.38;75.57;100334.94;5001310;28;20116;-41
2022/12/31 03:15:23;;;;;;;5.55;1.00;;;;;;;14.02;76.17;100333.53;4998293;28;20509;-41
2022/12/31 03:17:58;;;;;;;4.70;1.00;;;;;;;14.40;75.00;100328.78;5001871;28;20036;-44
2022/12/31 03:23:39;;;;;;;6.82;0.98;;;;;;;14.08;75.69;100330.84;4998362;28;20714;-40
2022/12/31 03:26:10;;;;;;;6.03;0.95;;;;;;;14.06;75.55;100332.59;4998097;28;20124;-42
2022/12/31 03:28:38;;;;;;;5.80;0.90;;;;;;;13.87;75.69;100321.41;5001916;28;20289;-41
2022/12/31 03:31:04;;;;;;;5.47;0.90;;;;;;;13.89;75.83;100319.66;4997827;28;20451;-40
2022/12/31 03:33:35;;;;;;;5.05;0.80;;;;;;;14.20;74.79;100312.38;5000209;28;20045;-40
2022/12/31 03:36:07;;;;;;;4.10;0.70;;;;;;;14.33;74.05;100294.75;5001505;28;20068;-43
2022/12/31 03:38:33;;;;;;;4.30;0.80;;;;;;;14.14;74.61;100300.19;4997954;28;20038;-43
2022/12/31 03:40:58;;;;;;;7.03;0.70;;;;;;;14.19;74.46;100308.88;5001368;28;20060;-41
2022/12/31 03:43:23;;;;;;;6.50;1.08;;;;;;;13.96;75.00;100295.16;4999061;28;20048;-41
2022/12/31 03:45:50;;;;;;;4.60;0.90;;;;;;;13.87;75.35;100282.13;5005252;28;20037;-42
2022/12/31 03:48:16;;;;;;;4.97;0.90;;;;;;;14.28;74.08;100278.19;5001692;28;20116;-44
2022/12/31 03:50:41;;;;;;;5.57;0.82;;;;;;;14.41;73.46;100267.59;5005523;28;20411;-43
2022/12/31 03:53:06;;;;;;;2.78;0.50;;;;;;;14.14;74.73;100308.06;5002027;28;20069;-43
2022/12/31 03:55:32;;;;;;;4.93;1.00;;;;;;;14.02;75.09;100292.47;5005215;28;20068;-42
2022/12/31 03:57:57;;;;;;;4.40;0.80;;;;;;;14.25;74.33;100297.47;5003784;28;20503;-43
2022/12/31 04:00:23;;;;;;;7.07;1.02;;;;;;;14.17;74.73;100302.78;5000886;28;21805;-41
2022/12/31 04:02:49;;;;;;;5.40;0.90;;;;;;;14.19;74.65;100303.66;5005041;28;20494;-42
2022/12/31 04:05:16;;;;;;;4.32;1.30;;;;;;;14.10;75.10;100306.34;5001393;28;20030;-41
2022/12/31 04:07:41;;;;;;;5.93;1.02;;;;;;;14.29;74.63;100306.16;5004837;28;20037;-42
2022/12/31 04:10:10;;;;;;;6.68;1.13;;;;;;;14.16;74.77;100305.41;5001960;28;20037;-43
2022/12/31 04:12:35;;;;;;;5.30;1.30;;;;;;;14.34;74.49;100307.84;5005807;28;20042;-40
2022/12/31 04:15:01;;;;;;;2.97;1.13;;;;;;;14.37;74.44;100312.19;5007118;28;20041;-43
2022/12/31 04:17:26;;;;;;;4.85;1.70;;;;;;;14.22;75.12;100311.47;5001668;28;20125;-41
2022/12/31 04:19:52;;;;;;;5.72;2.33;;;;;;;14.00;75.85;100309.94;5004510;28;20034;-42
2022/12/31 04:22:17;;;;;;;6.32;2.60;;;;;;;14.01;76.36;100316.06;5000801;28;20409;-42
2022/12/31 04:24:43;;;;;;;7.90;2.80;;;;;;;13.95;76.19;100303.00;5006158;28;20099;-40
2022/12/31 04:27:10;;;;;;;6.30;2.47;;;;;;;14.41;74.91;100303.44;5002787;28;20037;-40
2022/12/31 04:29:35;;;;;;;8.45;3.17;;;;;;;14.30;75.18;100305.28;5004597;28;20044;-40
2022/12/31 04:32:01;;;;;;;6.65;3.20;;;;;;;14.16;75.71;100310.66;5003907;28;20038;-40
2022/12/31 04:34:26;;;;;;;5.25;2.80;;;;;;;14.48;74.88;100305.97;5000358;28;20445;-40
2022/12/31 04:36:51;;;;;;;8.07;3.08;;;;;;;14.27;75.50;100300.06;5004235;28;20042;-42
2022/12/31 04:39:17;;;;;;;7.15;3.10;;;;;;;14.43;75.11;100305.16;5001033;28;20044;-42
2022/12/31 04:41:42;;;;;;;5.00;2.80;;;;;;;14.49;74.92;100294.59;5007817;28;20097;-40
2022/12/31 04:44:07;;;;;;;5.13;2.60;;;;;;;14.36;74.90;100300.81;5005778;28;20068;-39
2022/12/31 04:46:33;;;;;;;4.40;2.53;;;;;;;14.60;74.62;100294.47;5008144;28;20038;-40
2022/12/31 04:48:59;;;;;;;4.28;2.55;;;;;;;14.65;74.41;100294.41;5004750;28;20045;-41
2022/12/31 04:51:27;;;;;;;6.13;2.70;;;;;;;14.69;74.39;100296.13;5000904;28;20641;-41
2022/12/31 04:53:53;;;;;;;5.38;2.67;;;;;;;14.65;74.34;100303.13;5004529;28;20126;-40
2022/12/31 04:56:19;;;;;;;4.90;2.85;;;;;;;14.62;74.30;100303.19;4999515;28;20225;-40
2022/12/31 04:58:44;;;;;;;6.07;3.20;;;;;;;14.57;74.73;100305.00;5004152;28;20041;-44
2022/12/31 05:01:10;;;;;;;5.70;3.25;;;;;;;14.76;74.19;100295.16;4999831;28;20131;-42
2022/12/31 05:03:36;;;;;;;7.88;4.40;;;;;;;14.65;74.65;100303.13;5003922;28;20038;-40
2022/12/31 05:06:04;;;;;;;7.25;4.30;;;;;;;14.71;74.58;100305.69;5003832;28;20402;-44
2022/12/31 05:08:30;;;;;;;6.80;4.20;;;;;;;14.72;74.54;100309.19;5000025;28;20052;-41
2022/12/31 05:10:55;;;;;;;6.53;4.25;;;;;;;14.56;75.11;100303.25;5003222;28;20124;-39
2022/12/31 05:13:22;;;;;;;6.97;4.60;;;;;;;14.70;74.80;100290.81;5000186;28;20034;-39
2022/12/31 05:15:47;;;;;;;7.22;4.80;;;;;;;14.45;75.75;100305.16;5003680;28;20041;-40
2022/12/31 05:18:13;;;;;;;7.07;4.50;;;;;;;14.27;77.11;100287.84;4999847;28;20045;-41
2022/12/31 05:20:39;;;;;;;8.73;4.57;;;;;;;14.41;77.03;100303.44;5003760;28;20065;-40
2022/12/31 05:23:04;;;;;;;8.57;4.55;;;;;;;14.49;76.48;100299.84;5000791;28;20037;-41
2022/12/31 05:25:30;;;;;;;8.80;4.85;;;;;;;14.52;76.97;100289.31;5005524;28;20029;-40
2022/12/31 05:27:55;;;;;;;7.18;4.35;;;;;;;14.55;77.34;100291.03;5006613;28;20498;-40
2022/12/31 05:30:21;;;;;;;7.65;4.55;;;;;;;14.76;76.19;100296.00;5002063;28;20029;-39
2022/12/31 05:32:46;;;;;;;7.00;4.07;;;;;;;14.76;76.59;100296.00;5005863;28;20414;-41
2022/12/31 05:35:12;;;;;;;8.40;4.30;;;;;;;14.91;75.88;100293.19;5002607;28;20402;-43
2022/12/31 05:37:37;;;;;;;7.05;3.85;;;;;;;14.76;76.99;100295.16;5006686;28;20517;-40
2022/12/31 05:40:04;;;;;;;7.45;3.83;;;;;;;14.60;77.32;100291.84;5005721;28;20097;-41
2022/12/31 05:42:29;;;;;;;6.32;3.50;;;;;;;14.55;78.33;100298.91;5002404;28;20036;-39
2022/12/31 05:44:54;;;;;;;5.72;3.60;;;;;;;14.36;79.33;100287.72;5006797;28;20034;-39
2022/12/31 05:47:20;;;;;;;6.53;3.50;;;;;;;14.78;77.87;100291.59;5002632;28;20037;-43
2022/12/31 05:49:45;;;;;;;5.75;3.50;;;;;;;14.85;77.26;100298.50;5004884;28;20030;-40
2022/12/31 05:52:10;;;;;;;6.05;3.50;;;;;;;14.98;77.31;100299.22;4999503;28;20076;-42
2022/12/31 05:54:36;;;;;;;4.95;3.10;;;;;;;15.01;77.29;100292.16;5003151;28;20064;-41
2022/12/31 05:57:02;;;;;;;5.43;3.47;;;;;;;14.88;77.50;100295.84;5003036;28;20065;-43
2022/12/31 05:59:28;;;;;;;5.20;3.15;;;;;;;14.64;79.23;100295.31;5001075;28;20058;-40
2022/12/31 06:01:53;;;;;;;4.68;2.80;;;;;;;14.80;78.96;100302.97;5004794;28;20060;-41
2022/12/31 06:04:19;;;;;;;3.50;2.45;;;;;;;14.81;78.13;100299.44;5001469;28;20441;-42
2022/12/31 06:06:44;;;;;;;3.53;2.20;;;;;;;15.23;77.09;100298.00;5006315;28;20030;-40
2022/12/31 06:09:09;;;;;;;4.30;2.33;;;;;;;15.14;76.83;100303.34;5002224;28;20034;-41
2022/12/31 06:11:34;;;;;;;4.32;2.67;;;;;;;15.15;77.59;100306.84;5005041;28;20038;-41
2022/12/31 06:14:00;;;;;;;5.35;3.25;;;;;;;14.80;79.39;100302.09;5005624;28;20113;-41
2022/12/31 06:16:25;;;;;;;5.72;3.28;;;;;;;15.27;78.65;100309.31;5001911;28;20105;-39
2022/12/31 06:18:51;;;;;;;4.65;3.00;;;;;;;14.79;80.02;100314.34;5006067;28;20498;-41
2022/12/31 06:21:18;;;;;;;5.90;3.03;;;;;;;15.14;79.36;100313.00;5002082;28;20034;-40
2022/12/31 06:23:43;;;;;;;4.47;2.95;;;;;;;15.09;79.79;100302.56;5005637;28;20034;-42
2022/12/31 06:26:09;;;;;;;4.38;2.70;;;;;;;15.47;79.16;100312.50;5001673;28;20033;-42
2022/12/31 06:28:34;;;;;;;3.10;2.50;;;;;;;15.59;78.14;100306.22;5005511;28;20038;-41
2022/12/31 06:31:04;;;;;;;2.95;2.30;;;;;;;15.35;78.98;100305.69;5003388;28;20046;-41
2022/12/31 06:33:30;;;;;;;3.20;2.33;;;;;;;15.21;80.24;100294.50;4999806;28;20037;-39
2022/12/31 06:35:57;;;;;;;3.20;2.20;;;;;;;15.34;79.51;100296.06;5005823;28;20040;-43
2022/12/31 06:38:24;;;;;;;3.55;2.20;;;;;;;15.22;79.59;100306.75;5002379;28;20064;-42
2022/12/31 06:40:49;;;;;;;4.40;2.15;;;;;;;15.69;78.66;100300.78;5002656;28;20538;-46
2022/12/31 06:43:15;;;;;;;2.55;2.10;;;;;;;16.00;77.19;100300.25;4999870;28;20121;-41
2022/12/31 06:45:40;;;;;;;2.50;2.00;;;;;;;15.73;78.05;100288.47;5005056;28;20041;-40
2022/12/31 06:48:06;;;;;;;4.13;2.10;;;;;;;15.58;78.18;100304.47;5001056;28;20117;-42
2022/12/31 06:50:31;;;;;;;2.97;1.80;;;;;;;15.44;78.90;100316.03;5003409;28;20072;-42
2022/12/31 06:52:56;;;;;;;3.10;1.90;;;;;;;15.48;79.76;100322.13;5004079;28;20046;-42
2022/12/31 06:55:22;;;;;;;2.67;1.88;;;;;;;15.53;79.41;100317.69;4998967;28;20038;-42
2022/12/31 06:57:48;;;;;;;2.45;1.50;;;;;;;15.49;79.77;100313.31;5004111;28;20070;-42
2022/12/31 07:00:14;;;;;;;2.53;1.30;;;;;;;15.62;79.49;100312.28;5000067;28;20037;-44
2022/12/31 07:03:18;;;;;;;1.77;1.10;;;;;;;15.89;78.70;100329.38;5002036;28;20030;-42
2022/12/31 07:05:57;;;;;;;1.80;0.90;;;;;;;15.48;80.53;100322.13;4998616;28;20044;-41
2022/12/31 07:08:59;;;;;;;3.75;0.80;;;;;;;15.62;80.25;100321.91;4998142;28;20034;-44
2022/12/31 07:11:31;;;;;;;1.67;0.73;;;;;;;15.67;79.70;100322.75;4997936;28;20049;-42
2022/12/31 07:14:19;;;;;;;1.17;0.60;;;;;;;15.68;79.60;100327.06;5002261;28;20072;-44
2022/12/31 07:16:56;;;;;;;2.58;0.80;;;;;;;15.85;79.32;100329.44;4998652;28;20050;-43
2022/12/31 07:19:27;;;;;;;2.08;0.70;;;;;;;15.64;79.76;100331.53;5000996;28;20080;-41
2022/12/31 07:21:57;;;;;;;1.60;0.65;;;;;;;15.96;79.20;100333.63;5005299;28;20582;-40
2022/12/31 07:24:22;;;;;;;1.42;0.60;;;;;;;15.67;79.65;100330.63;5002114;28;20057;-41
2022/12/31 07:27:23;;;;;;;1.83;0.60;;;;;;;15.86;80.14;100342.53;5005881;28;20037;-42
2022/12/31 07:30:12;;;;;;;1.85;0.68;;;;;;;15.73;80.33;100346.28;5002599;28;20091;-41
2022/12/31 07:33:03;;;;;;;1.20;0.70;;;;;;;16.01;79.04;100344.06;5001587;28;20034;-43
2022/12/31 07:35:47;;;;;;;2.40;0.70;;;;;;;15.83;79.75;100351.38;5001613;28;20048;-41
2022/12/31 07:38:15;;;;;;;1.70;0.70;;;;;;;15.79;80.42;100336.56;5001770;28;20094;-40
2022/12/31 07:41:02;;;;;;;1.80;0.68;;;;;;;15.78;80.25;100339.19;5005108;28;20096;-41
2022/12/31 07:43:46;;;;;;;2.85;0.80;;;;;;;15.74;80.46;100333.09;5001296;28;20036;-40
2022/12/31 07:46:48;;;;;;;1.52;0.70;;;;;;;15.79;79.42;100333.94;5001233;28;20585;-39
2022/12/31 07:49:13;;;;;;;2.90;0.70;;;;;;;15.54;79.89;100350.09;5001431;28;20092;-40
2022/12/31 07:51:40;;;;;;;1.80;0.60;;;;;;;15.69;78.76;100345.47;5005111;28;20038;-42
2022/12/31 07:54:07;;;;;;;2.13;0.60;;;;;;;15.52;79.49;100355.38;5001276;28;20044;-43
2022/12/31 07:56:32;;;;;;;2.25;0.60;;;;;;;15.67;78.30;100352.53;5005009;28;20038;-43
2022/12/31 07:59:01;;;;;;;1.20;0.50;;;;;;;15.50;78.84;100348.34;5005073;28;20065;-42
2022/12/31 08:02:12;;;;;;;2.63;0.55;;;;;;;15.33;79.10;100356.47;5001165;28;20038;-41
2022/12/31 08:05:14;;;;;;;2.90;0.50;;;;;;;15.55;77.95;100362.34;4986830;28;20058;-41
2022/12/31 08:07:42;;;;;;;2.65;0.47;;;;;;;15.53;78.92;100356.22;5001424;28;20033;-42
2022/12/31 08:10:25;;;;;;;4.95;0.73;;;;;;;15.83;77.91;100379.41;5001104;28;20436;-41
2022/12/31 08:12:58;;;;;;;2.38;0.60;;;;;;;15.37;78.91;100380.06;5005386;28;20030;-41
2022/12/31 08:15:23;;;;;;;3.00;0.65;;;;;;;15.37;77.95;100372.16;5001071;28;20510;-41
2022/12/31 08:17:49;;;;;;;3.53;0.73;;;;;;;15.61;76.48;100392.03;5005090;28;20037;-42
2022/12/31 08:20:16;;;;;;;4.70;0.77;;;;;;;15.35;76.11;100399.38;5001280;28;20042;-44
2022/12/31 08:22:41;;;;;;;4.82;0.70;;;;;;;15.40;76.03;100387.03;5005492;28;20113;-42
2022/12/31 08:25:12;;;;;;;3.85;0.73;;;;;;;15.55;75.64;100399.13;5002546;28;20137;-44
2022/12/31 08:28:02;;;;;;;4.05;0.88;;;;;;;15.82;74.84;100411.84;5006166;28;20113;-41
2022/12/31 08:31:00;;;;;;;4.45;0.80;;;;;;;15.61;75.29;100401.66;5000591;28;20095;-41
2022/12/31 08:33:29;;;;;;;4.97;0.98;;;;;;;15.55;75.06;100410.50;4998426;28;20049;-41
2022/12/31 08:36:15;;;;;;;4.45;0.75;;;;;;;15.88;74.00;100414.38;5004799;28;20387;-41
2022/12/31 08:38:57;;;;;;;4.53;0.75;;;;;;;16.07;73.81;100428.97;5000842;28;20049;-41
2022/12/31 08:41:37;;;;;;;4.95;0.70;;;;;;;15.83;74.66;100424.09;5000487;28;20038;-41
2022/12/31 08:44:30;;;;;;;6.88;0.90;;;;;;;16.15;74.92;100424.47;5006476;28;20049;-41
2022/12/31 08:47:01;;;;;;;3.63;0.82;;;;;;;15.98;76.08;100444.88;5001983;28;20034;-43
2022/12/31 08:49:29;;;;;;;6.68;1.30;;;;;;;15.70;78.18;100448.81;5003158;28;20061;-42
2022/12/31 08:51:55;;;;;;;4.97;0.85;;;;;;;16.23;76.43;100440.97;5006452;28;20064;-41
2022/12/31 08:54:21;;;;;;;6.25;1.20;;;;;;;16.37;76.33;100439.88;5002075;28;20073;-41
2022/12/31 08:57:25;;;;;;;6.65;1.02;;;;;;;16.12;77.44;100440.28;5003921;28;20503;-41
2022/12/31 09:00:02;;;;;;;7.82;1.30;;;;;;;16.21;76.31;100434.00;4991573;28;20033;-43
2022/12/31 09:02:33;;;;;;;6.50;1.20;;;;;;;16.02;77.15;100451.84;4999882;28;20029;-41
2022/12/31 09:05:26;;;;;;;5.40;1.40;;;;;;;16.16;76.84;100454.28;5003795;28;20501;-42
2022/12/31 09:08:07;;;;;;;8.70;1.50;;;;;;;15.95;77.47;100444.06;4995802;28;20427;-40
2022/12/31 09:13:21;;;;;;;6.60;1.42;;;;;;;16.38;76.36;100447.75;4982470;28;20067;-39
2022/12/31 09:16:12;;;;;;;5.72;1.05;;;;;;;16.61;75.67;100466.66;4978925;28;20343;-42
2022/12/31 09:18:40;;;;;;;5.30;1.20;;;;;;;16.15;76.75;100479.69;4981215;28;20380;-42
2022/12/31 09:21:08;;;;;;;5.80;1.10;;;;;;;16.11;77.21;100474.47;4980356;28;20038;-39
2022/12/31 09:23:34;;;;;;;4.68;1.35;;;;;;;15.87;78.59;100501.13;4984974;28;20037;-39
2022/12/31 09:26:05;;;;;;;5.90;1.20;;;;;;;15.98;79.10;100481.69;4984680;28;20030;-40
2022/12/31 09:28:55;;;;;;;4.97;1.10;;;;;;;16.20;78.44;100488.38;4980924;28;20060;-41
2022/12/31 09:31:29;;;;;;;5.93;1.20;;;;;;;15.79;80.20;100485.50;4980570;28;20035;-40
2022/12/31 09:34:00;;;;;;;5.78;0.93;;;;;;;15.94;80.31;100492.28;4985718;28;20092;-40
2022/12/31 09:36:40;;;;;;;5.85;1.27;;;;;;;15.98;79.48;100483.47;4980241;28;20045;-40
2022/12/31 09:39:30;;;;;;;6.55;1.20;;;;;;;16.07;79.06;100489.44;4985556;28;20157;-41
2022/12/31 09:42:36;;;;;;;5.75;1.15;;;;;;;16.31;78.78;100482.94;4976275;28;20121;-40
2022/12/31 09:45:30;;;;;;;5.75;1.50;;;;;;;16.08;79.18;100485.06;4983475;28;20046;-41
2022/12/31 09:48:26;;;;;;;6.22;1.60;;;;;;;16.24;78.18;100484.78;4983247;28;20085;-40
2022/12/31 09:51:16;;;;;;;9.38;2.03;;;;;;;16.56;76.99;100486.03;4981814;28;20070;-41
2022/12/31 09:54:03;;;;;;;6.43;2.13;;;;;;;16.13;78.54;100501.63;4981291;28;20046;-40
2022/12/31 09:56:35;;;;;;;5.68;2.10;;;;;;;16.33;78.76;100510.09;4981781;28;20046;-41
2022/12/31 09:59:32;;;;;;;5.20;1.77;;;;;;;16.59;77.56;100505.28;4985346;28;20329;-41
2022/12/31 10:02:15;;;;;;;5.55;1.70;;;;;;;16.13;78.46;100501.63;4981373;28;20058;-41
2022/12/31 10:05:17;;;;;;;3.63;1.42;;;;;;;16.27;79.12;100518.09;4982474;28;20030;-40
2022/12/31 10:07:48;;;;;;;5.38;1.40;;;;;;;16.75;77.03;100532.22;4982078;28;20035;-39
2022/12/31 10:10:32;;;;;;;5.15;1.70;;;;;;;16.95;76.32;100510.81;4980805;28;20494;-40
2022/12/31 10:13:09;;;;;;;5.25;1.60;;;;;;;16.89;76.76;100514.44;4985089;28;20137;-40
2022/12/31 10:15:53;;;;;;;4.57;1.60;;;;;;;16.98;76.58;100526.56;4981666;28;20350;-40
2022/12/31 10:18:36;;;;;;;3.22;1.50;;;;;;;16.92;77.28;100524.03;4982494;28;20042;-41
2022/12/31 10:21:35;;;;;;;4.68;1.60;;;;;;;16.52;78.37;100529.97;4985101;28;20034;-40
2022/12/31 10:24:25;;;;;;;5.53;1.77;;;;;;;16.76;78.42;100504.16;4980228;28;20042;-44
2022/12/31 10:27:13;;;;;;;6.28;2.03;;;;;;;16.36;80.34;100533.72;4980226;28;20026;-39
2022/12/31 10:29:46;;;;;;;6.70;1.85;;;;;;;16.79;79.13;100543.56;4979654;28;20046;-42
2022/12/31 10:32:49;;;;;;;5.07;1.77;;;;;;;16.73;79.27;100539.28;4977906;28;20034;-41
2022/12/31 10:35:17;;;;;;;4.25;1.90;;;;;;;16.82;79.17;100549.66;4979533;28;20062;-40
2022/12/31 10:38:03;;;;;;;4.15;2.00;;;;;;;16.51;80.24;100546.63;4983546;28;20041;-41
2022/12/31 10:41:29;;;;;;;4.82;1.90;;;;;;;16.41;80.58;100555.56;4979495;28;20046;-41
2022/12/31 10:44:32;;;;;;;8.18;2.38;;;;;;;16.48;80.33;100557.19;4971999;28;20430;-41
2022/12/31 10:47:35;;;;;;;3.90;2.10;;;;;;;16.57;80.02;100557.06;4981512;28;20046;-39
2022/12/31 10:50:24;;;;;;;6.55;2.60;;;;;;;16.72;79.47;100553.31;4983306;28;20132;-40
2022/12/31 10:53:11;;;;;;;4.85;1.98;;;;;;;16.46;80.27;100544.97;4982609;28;20057;-40
2022/12/31 10:56:01;;;;;;;6.70;2.00;;;;;;;16.74;80.33;100540.16;4985130;28;20411;-40
2022/12/31 10:59:00;;;;;;;5.32;2.10;;;;;;;16.82;80.33;100554.06;4984970;28;20038;-41
2022/12/31 11:01:28;;;;;;;6.07;1.75;;;;;;;16.49;80.83;100568.59;4984847;28;20039;-41
2022/12/31 11:04:12;;;;;;;4.10;1.70;;;;;;;16.17;82.48;100580.47;4987910;28;20047;-41
2022/12/31 11:06:59;;;;;;;4.88;1.73;;;;;;;16.30;81.21;100551.34;4985150;28;20035;-40
2022/12/31 11:09:43;;;;;;;3.38;1.10;;;;;;;16.34;81.16;100571.47;4986191;28;20045;-39
2022/12/31 11:12:17;;;;;;;3.90;1.15;;;;;;;16.05;82.18;100562.22;4986854;28;20066;-43
2022/12/31 11:15:01;;;;;;;;;;;;;;;16.07;81.62;100562.22;4990183;28;20404;-40
2022/12/31 11:17:43;;;;;;;3.13;0.90;;;;;;;15.81;82.85;100550.28;4986888;28;19922;-41
2022/12/31 11:20:30;;;;;;;3.88;1.10;;;;;;;16.22;81.08;100565.47;4982842;28;20038;-41
2022/12/31 11:23:08;;;;;;;4.65;1.20;;;;;;;16.04;81.87;100555.22;4989345;28;20088;-39
2022/12/31 11:26:06;;;;;;;3.40;1.13;;;;;;;16.05;82.24;100559.59;4985644;28;20035;-42
2022/12/31 11:28:49;;;;;;;3.35;1.27;;;;;;;16.08;81.61;100549.06;4984941;28;20121;-40
2022/12/31 11:31:30;;;;;;;4.50;1.75;;;;;;;16.25;81.43;100546.16;4982723;28;20392;-41
2022/12/31 11:34:24;;;;;;;3.17;1.90;;;;;;;16.50;80.41;100538.75;4987167;28;20053;-41
2022/12/31 11:36:49;;;;;;;5.70;2.58;;;;;;;16.66;79.75;100529.75;4982853;28;20036;-41
2022/12/31 11:39:14;;;;;;;5.35;2.20;;;;;;;16.74;79.20;100537.50;4983029;28;20031;-42
2022/12/31 11:41:56;;;;;;;8.38;3.50;;;;;;;16.83;79.38;100535.56;4986374;28;20066;-38
2022/12/31 11:44:58;;;;;;;5.20;2.13;;;;;;;16.85;79.51;100525.03;4982372;28;20487;-38
2022/12/31 11:47:38;;;;;;;20.00;11.07;;;;;;;16.57;80.24;100520.22;4974834;28;20038;-37
2022/12/31 11:50:23;;;;;;;6.22;3.60;;;;;;;16.54;81.48;100520.25;4987113;28;20132;-40
2022/12/31 11:53:23;;;;;;;5.78;2.88;;;;;;;16.76;80.87;100520.81;4983390;28;20491;-41
2022/12/31 11:56:16;;;;;;;6.78;3.08;;;;;;;17.03;79.18;100512.41;4985053;28;20053;-40
2022/12/31 11:58:47;;;;;;;6.07;2.95;;;;;;;16.86;79.80;100522.38;4985980;28;20478;-41
2022/12/31 12:01:23;;;;;;;6.25;3.10;;;;;;;16.78;79.73;100500.56;4984839;28;20570;-38
2022/12/31 12:03:49;;;;;;;6.65;2.67;;;;;;;16.79;81.32;100504.94;4990243;28;20503;-39
2022/12/31 12:06:17;;;;;;;6.72;2.65;;;;;;;16.82;80.76;100480.34;4986768;28;20057;-39